createdAt,value
2019-02-06T00:01:20.638Z,122.45
2019-02-06T00:03:54.534Z,115.03
2019-02-06T00:06:28.348Z,118.80
2019-02-06T00:08:59.769Z,104.47
2019-02-06T00:11:31.114Z,107.93
2019-02-06T00:14:04.700Z,112.70
2019-02-06T00:16:36.440Z,107.13
2019-02-06T00:19:11.242Z,114.87
2019-02-06T00:21:43.541Z,119.27
2019-02-06T00:24:17.562Z,122.37
2019-02-06T00:26:51.642Z,119.93
2019-02-06T00:29:22.906Z,119.47
2019-02-06T00:31:56.578Z,113.23
2019-02-06T00:34:30.527Z,119.40
2019-02-06T00:37:04.746Z,120.47
2019-02-06T00:39:38.551Z,124.70
2019-02-06T00:42:11.632Z,112.45
2019-02-06T00:44:43.781Z,124.60
2019-02-06T00:47:17.694Z,126.15
2019-02-06T00:49:51.616Z,122.30
2019-02-06T00:52:23.596Z,131.70
2019-02-06T00:54:56.650Z,126.00
2019-02-06T00:57:32.161Z,121.50
2019-02-06T01:00:07.338Z,126.35
2019-02-06T01:02:38.664Z,127.10
2019-02-06T01:05:15.406Z,110.37
2019-02-06T01:07:49.898Z,127.70
2019-02-06T01:10:23.422Z,145.77
2019-02-06T01:12:54.700Z,118.50
2019-02-06T01:15:30.208Z,131.60
2019-02-06T01:18:02.687Z,123.35
2019-02-06T01:20:35.929Z,129.77
2019-02-06T01:23:09.721Z,129.80
2019-02-06T01:25:41.627Z,130.60
2019-02-06T01:28:14.836Z,132.13
2019-02-06T01:31:05.072Z,138.27
2019-02-06T01:33:38.827Z,135.20
2019-02-06T01:36:11.884Z,118.00
2019-02-06T01:38:45.825Z,134.93
2019-02-06T01:41:19.730Z,137.65
2019-02-06T01:43:52.034Z,135.17
2019-02-06T01:46:24.942Z,141.63
2019-02-06T01:48:58.791Z,137.33
2019-02-06T01:51:32.854Z,129.35
2019-02-06T01:54:07.049Z,125.47
2019-02-06T01:56:40.916Z,128.63
2019-02-06T01:59:12.205Z,123.50
2019-02-06T02:01:46.018Z,127.32
2019-02-06T02:04:20.062Z,141.57
2019-02-06T02:06:51.328Z,141.57
2019-02-06T02:09:25.035Z,129.27
2019-02-06T02:11:59.016Z,128.57
2019-02-06T02:14:32.743Z,129.45
2019-02-06T02:17:04.480Z,132.87
2019-02-06T02:19:37.987Z,120.08
2019-02-06T02:22:11.254Z,126.35
2019-02-06T02:24:43.026Z,140.43
2019-02-06T02:27:17.240Z,137.67
2019-02-06T02:29:49.035Z,126.03
2019-02-06T02:32:22.019Z,134.27
2019-02-06T02:34:55.578Z,143.90
2019-02-06T02:37:29.000Z,121.60
2019-02-06T02:40:01.071Z,119.37
2019-02-06T02:42:32.721Z,124.53
2019-02-06T02:45:06.378Z,125.87
2019-02-06T02:47:39.229Z,116.90
2019-02-06T02:50:12.008Z,122.90
2019-02-06T02:52:45.100Z,134.97
2019-02-06T02:55:18.258Z,119.62
2019-02-06T02:57:49.557Z,114.93
2019-02-06T03:00:28.161Z,117.95
2019-02-06T03:03:25.386Z,137.95
2019-02-06T03:05:58.120Z,121.07
2019-02-06T03:08:32.054Z,126.37
2019-02-06T03:11:06.252Z,145.47
2019-02-06T03:13:39.105Z,126.33
2019-02-06T03:16:11.171Z,137.47
2019-02-06T03:18:42.469Z,132.90
2019-02-06T03:21:16.215Z,118.70
2019-02-06T03:23:50.301Z,134.37
2019-02-06T03:26:24.438Z,134.00
2019-02-06T03:28:57.230Z,155.80
2019-02-06T03:31:29.294Z,142.35
2019-02-06T03:34:04.749Z,136.40
2019-02-06T03:36:40.465Z,117.27
2019-02-06T03:39:10.727Z,137.07
2019-02-06T03:41:44.211Z,135.47
2019-02-06T03:44:18.199Z,134.65
2019-02-06T03:46:53.149Z,140.30
2019-02-06T03:49:26.239Z,140.87
2019-02-06T03:52:00.324Z,138.95
2019-02-06T03:54:32.938Z,132.43
2019-02-06T03:57:05.540Z,124.20
2019-02-06T03:59:37.646Z,125.72
2019-02-06T04:02:10.487Z,137.47
2019-02-06T04:04:42.490Z,144.80
2019-02-06T04:07:15.517Z,150.40
2019-02-06T04:09:49.406Z,158.00
2019-02-06T04:12:23.601Z,154.57
2019-02-06T04:14:57.478Z,135.70
2019-02-06T04:17:33.018Z,141.68
2019-02-06T04:20:06.381Z,142.20
2019-02-06T04:22:39.588Z,151.20
2019-02-06T04:25:13.114Z,143.23
2019-02-06T04:27:46.480Z,158.20
2019-02-06T04:30:20.679Z,135.63
2019-02-06T04:32:54.644Z,135.67
2019-02-06T04:35:26.030Z,133.30
2019-02-06T04:37:57.301Z,142.30
2019-02-06T04:40:30.616Z,138.17
2019-02-06T04:43:03.511Z,144.13
2019-02-06T04:45:36.218Z,169.73
2019-02-06T04:48:10.531Z,153.18
2019-02-06T04:50:42.642Z,156.13
2019-02-06T04:53:14.629Z,140.77
2019-02-06T04:55:48.608Z,157.70
2019-02-06T04:58:19.896Z,153.53
2019-02-06T05:00:53.672Z,161.30
2019-02-06T05:03:29.268Z,137.30
2019-02-06T05:06:01.629Z,162.43
2019-02-06T05:08:33.016Z,142.83
2019-02-06T05:11:05.675Z,139.87
2019-02-06T05:13:37.026Z,145.97
2019-02-06T05:16:10.842Z,146.33
2019-02-06T05:18:42.436Z,153.10
2019-02-06T05:21:15.825Z,137.77
2019-02-06T05:23:49.732Z,152.60
2019-02-06T05:26:23.731Z,150.42
2019-02-06T05:28:55.768Z,157.10
2019-02-06T05:31:29.707Z,149.57
2019-02-06T05:34:03.634Z,156.87
2019-02-06T05:36:34.998Z,161.43
2019-02-06T05:39:09.556Z,155.17
2019-02-06T05:41:41.753Z,154.13
2019-02-06T05:44:13.083Z,147.37
2019-02-06T05:46:46.931Z,166.83
2019-02-06T05:49:22.723Z,168.37
2019-02-06T05:51:54.837Z,146.40
2019-02-06T05:54:26.294Z,163.30
2019-02-06T05:56:57.558Z,145.75
2019-02-06T05:59:30.855Z,158.23
2019-02-06T06:02:04.853Z,177.22
2019-02-06T06:04:37.489Z,157.60
2019-02-06T06:07:10.054Z,157.80
2019-02-06T06:09:41.979Z,165.70
2019-02-06T06:12:14.961Z,162.87
2019-02-06T06:14:48.863Z,158.50
2019-02-06T06:17:20.143Z,150.72
2019-02-06T06:19:54.044Z,155.13
2019-02-06T06:22:28.028Z,157.88
2019-02-06T06:24:59.345Z,156.23
2019-02-06T06:27:33.160Z,154.83
2019-02-06T06:30:06.402Z,156.93
2019-02-06T06:32:39.153Z,142.47
2019-02-06T06:35:11.624Z,146.20
2019-02-06T06:37:43.020Z,151.27
2019-02-06T06:40:20.673Z,146.47
2019-02-06T06:42:53.150Z,139.77
2019-02-06T06:45:26.358Z,134.97
2019-02-06T06:48:00.041Z,129.57
2019-02-06T06:50:32.382Z,165.43
2019-02-06T06:53:03.649Z,159.87
2019-02-06T06:55:37.190Z,161.43
2019-02-06T06:58:11.181Z,144.73
2019-02-06T07:00:42.533Z,142.82
2019-02-06T07:03:16.385Z,178.60
2019-02-06T07:05:50.389Z,164.83
2019-02-06T07:08:24.259Z,180.80
2019-02-06T07:10:55.611Z,162.10
2019-02-06T07:13:26.999Z,158.83
2019-02-06T07:16:00.606Z,150.50
2019-02-06T07:18:31.947Z,128.70
2019-02-06T07:21:03.557Z,159.80
2019-02-06T07:23:37.236Z,156.70
2019-02-06T07:26:08.511Z,143.30
2019-02-06T07:28:42.293Z,166.28
2019-02-06T07:31:15.290Z,154.67
2019-02-06T07:33:48.555Z,150.27
2019-02-06T07:36:19.917Z,178.90
2019-02-06T07:38:55.078Z,154.42
2019-02-06T07:41:27.326Z,148.10
2019-02-06T07:44:01.351Z,161.60
2019-02-06T07:46:33.132Z,177.43
2019-02-06T07:49:06.535Z,161.23
2019-02-06T07:51:39.673Z,156.47
2019-02-06T07:54:11.365Z,160.10
2019-02-06T07:56:43.645Z,150.20
2019-02-06T07:59:16.530Z,147.43
2019-02-06T08:01:50.423Z,137.12
2019-02-06T08:04:23.632Z,148.00
2019-02-06T08:06:58.184Z,136.90
2019-02-06T08:09:29.680Z,141.33
2019-02-06T08:12:03.491Z,148.43
2019-02-06T08:14:34.838Z,150.70
2019-02-06T08:17:08.617Z,160.37
2019-02-06T08:19:42.668Z,149.40
2019-02-06T08:22:16.667Z,153.63
2019-02-06T08:24:50.660Z,155.73
2019-02-06T08:27:26.308Z,138.53
2019-02-06T08:29:58.584Z,149.53
2019-02-06T08:32:32.970Z,142.27
2019-02-06T08:35:07.010Z,142.23
2019-02-06T08:37:39.602Z,158.40
2019-02-06T08:40:13.841Z,141.40
2019-02-06T08:42:45.163Z,136.87
2019-02-06T08:45:16.619Z,155.23
2019-02-06T08:47:49.623Z,127.60
2019-02-06T08:50:23.727Z,150.70
2019-02-06T08:52:57.813Z,153.30
2019-02-06T08:55:31.967Z,148.70
2019-02-06T08:58:05.678Z,152.37
2019-02-06T09:00:39.001Z,152.55
2019-02-06T09:03:11.482Z,162.75
2019-02-06T09:05:44.634Z,124.40
2019-02-06T09:08:18.722Z,146.53
2019-02-06T09:10:52.761Z,138.70
2019-02-06T09:13:25.724Z,159.33
2019-02-06T09:15:57.495Z,150.73
2019-02-06T09:18:28.881Z,143.77
2019-02-06T09:21:02.948Z,139.03
2019-02-06T09:23:34.229Z,133.57
2019-02-06T09:26:07.979Z,144.40
2019-02-06T09:28:39.871Z,129.00
2019-02-06T09:31:12.672Z,132.57
2019-02-06T09:33:45.829Z,142.77
2019-02-06T09:36:21.464Z,113.83
2019-02-06T09:38:53.857Z,108.43
2019-02-06T09:41:29.420Z,122.47
2019-02-06T09:44:01.863Z,131.30
2019-02-06T09:46:33.364Z,121.53
2019-02-06T09:49:07.023Z,142.67
2019-02-06T09:51:39.838Z,129.50
2019-02-06T09:54:12.127Z,129.00
2019-02-06T09:56:43.467Z,119.13
2019-02-06T09:59:16.998Z,119.20
2019-02-06T10:01:50.930Z,124.07
2019-02-06T10:04:24.929Z,118.23
2019-02-06T10:07:00.518Z,101.58
2019-02-06T10:09:34.585Z,102.23
2019-02-06T10:12:07.042Z,123.47
2019-02-06T10:14:38.774Z,119.27
2019-02-06T10:17:12.096Z,116.20
2019-02-06T10:19:44.311Z,117.30
2019-02-06T10:22:16.156Z,113.43
2019-02-06T10:24:48.124Z,119.50
2019-02-06T10:27:23.959Z,124.00
2019-02-06T10:29:55.468Z,126.60
2019-02-06T10:32:26.744Z,132.97
2019-02-06T10:34:58.018Z,136.50
2019-02-06T10:37:31.089Z,135.18
2019-02-06T10:40:05.946Z,153.13
2019-02-06T10:42:40.219Z,137.90
2019-02-06T10:45:13.272Z,123.43
2019-02-06T10:47:46.430Z,134.17
2019-02-06T10:50:20.544Z,141.07
2019-02-06T10:52:52.223Z,117.77
2019-02-06T10:55:26.292Z,118.50
2019-02-06T10:58:01.954Z,129.43
2019-02-06T11:00:36.483Z,120.72
2019-02-06T11:03:08.325Z,114.50
2019-02-06T11:05:42.583Z,126.70
2019-02-06T11:08:16.323Z,129.60
2019-02-06T11:10:49.394Z,120.60
2019-02-06T11:13:23.323Z,122.10
2019-02-06T11:15:57.367Z,123.30
2019-02-06T11:18:28.714Z,118.63
2019-02-06T11:21:00.011Z,114.60
2019-02-06T11:23:33.371Z,111.50
2019-02-06T11:26:08.925Z,109.78
2019-02-06T11:28:42.399Z,105.97
2019-02-06T11:31:15.407Z,124.93
2019-02-06T11:33:49.425Z,115.93
2019-02-06T11:36:24.436Z,112.70
2019-02-06T11:38:57.420Z,128.40
2019-02-06T11:41:30.561Z,132.20
2019-02-06T11:44:02.363Z,107.83
2019-02-06T11:46:33.692Z,114.10
2019-02-06T11:49:09.373Z,108.57
2019-02-06T11:51:41.338Z,115.67
2019-02-06T11:54:12.659Z,117.27
2019-02-06T11:56:46.535Z,100.97
2019-02-06T11:59:20.385Z,100.67
2019-02-06T12:01:54.908Z,105.70
2019-02-06T12:04:28.501Z,107.93
2019-02-06T12:07:01.510Z,103.97
2019-02-06T12:09:33.057Z,104.40
2019-02-06T12:12:04.435Z,113.43
2019-02-06T12:14:35.990Z,120.53
2019-02-06T12:17:08.763Z,108.87
2019-02-06T12:19:42.675Z,106.63
2019-02-06T12:22:16.670Z,118.67
2019-02-06T12:24:50.700Z,121.23
2019-02-06T12:27:24.703Z,119.33
2019-02-06T12:29:56.012Z,102.55
2019-02-06T12:32:31.367Z,108.32
2019-02-06T12:35:03.556Z,100.83
2019-02-06T12:37:36.816Z,107.47
2019-02-06T12:40:08.844Z,93.33
2019-02-06T12:42:43.935Z,99.93
2019-02-06T12:45:17.120Z,98.87
2019-02-06T12:47:50.950Z,91.03
2019-02-06T12:50:24.884Z,118.33
2019-02-06T12:52:58.651Z,94.45
2019-02-06T12:55:34.108Z,101.77
2019-02-06T12:58:06.878Z,108.33
2019-02-06T13:00:41.909Z,102.90
2019-02-06T13:03:13.877Z,108.83
2019-02-06T13:05:47.676Z,98.67
2019-02-06T13:08:21.660Z,102.80
2019-02-06T13:10:55.697Z,112.03
2019-02-06T13:13:26.939Z,103.80
2019-02-06T13:15:58.230Z,98.77
2019-02-06T13:18:31.786Z,117.00
2019-02-06T13:21:06.258Z,97.40
2019-02-06T13:23:39.827Z,101.17
2019-02-06T13:26:13.815Z,100.40
2019-02-06T13:28:45.898Z,100.18
2019-02-06T13:31:18.667Z,105.60
2019-02-06T13:33:52.871Z,104.17
2019-02-06T13:36:25.866Z,84.43
2019-02-06T13:39:01.571Z,96.97
2019-02-06T13:41:33.580Z,92.40
2019-02-06T13:44:04.909Z,95.63
2019-02-06T13:46:37.022Z,97.92
2019-02-06T13:49:08.407Z,95.70
2019-02-06T13:51:39.978Z,104.03
2019-02-06T13:54:11.863Z,105.23
2019-02-06T13:56:43.119Z,97.50
2019-02-06T13:59:17.045Z,100.43
2019-02-06T14:01:51.036Z,96.28
2019-02-06T14:04:25.726Z,101.80
2019-02-06T14:06:58.029Z,106.97
2019-02-06T14:09:31.922Z,97.73
2019-02-06T14:12:03.184Z,106.95
2019-02-06T14:14:34.423Z,97.20
2019-02-06T14:17:08.312Z,87.27
2019-02-06T14:19:42.288Z,100.17
2019-02-06T14:22:16.435Z,108.40
2019-02-06T14:25:20.805Z,98.37
2019-02-06T14:28:14.979Z,83.40
2019-02-06T14:31:28.348Z,91.00
2019-02-06T14:34:51.805Z,102.93
2019-02-06T14:37:57.744Z,99.13
2019-02-06T14:41:12.873Z,96.10
2019-02-06T14:44:38.018Z,86.50
2019-02-06T14:47:47.549Z,114.27
2019-02-06T14:50:29.374Z,104.83
2019-02-06T14:53:56.256Z,98.20
2019-02-06T14:57:02.192Z,122.33
2019-02-06T14:59:50.222Z,114.00
2019-02-06T15:03:09.202Z,108.80
2019-02-06T15:06:13.404Z,102.60
2019-02-06T15:09:13.355Z,104.43
2019-02-06T15:11:59.502Z,99.27
2019-02-06T15:14:48.476Z,92.77
2019-02-06T15:17:41.841Z,96.03
2019-02-06T15:20:34.142Z,117.33
2019-02-06T15:23:44.407Z,92.57
2019-02-06T15:27:02.588Z,102.10
2019-02-06T15:30:01.978Z,100.33
2019-02-06T15:33:02.560Z,102.63
2019-02-06T15:36:23.123Z,106.27
2019-02-06T15:39:42.091Z,105.00
2019-02-06T15:42:27.893Z,115.63
2019-02-06T15:45:42.022Z,119.23
2019-02-06T15:48:55.455Z,101.77
2019-02-06T15:52:30.727Z,100.87
2019-02-06T15:55:57.758Z,115.03
2019-02-06T15:58:57.075Z,95.70
2019-02-06T16:02:13.302Z,117.55
2019-02-06T16:05:59.673Z,107.13
2019-02-06T16:09:18.868Z,106.00
2019-02-06T16:12:35.635Z,117.28
2019-02-06T16:15:48.566Z,105.40
2019-02-06T16:18:36.361Z,112.00
2019-02-06T16:21:32.378Z,93.53
2019-02-06T16:24:58.166Z,111.63
2019-02-06T16:28:07.499Z,111.33
2019-02-06T16:31:04.676Z,98.77
2019-02-06T16:34:08.859Z,115.90
2019-02-06T16:37:33.532Z,96.03
2019-02-06T16:41:00.697Z,111.70
2019-02-06T16:44:08.157Z,105.73
2019-02-06T16:47:19.159Z,96.50
2019-02-06T16:50:33.991Z,99.42
2019-02-06T16:53:39.448Z,116.73
2019-02-06T16:57:21.412Z,101.97
2019-02-06T17:00:11.033Z,114.65
2019-02-06T17:03:11.086Z,106.00
2019-02-06T17:06:19.791Z,110.13
2019-02-06T17:09:28.955Z,122.35
2019-02-06T17:12:20.295Z,122.77
2019-02-06T17:15:38.707Z,116.97
2019-02-06T17:18:47.919Z,128.60
2019-02-06T17:22:03.512Z,146.33
2019-02-06T17:25:21.062Z,121.67
2019-02-06T17:28:40.802Z,139.17
2019-02-06T17:31:44.199Z,138.40
2019-02-06T17:34:42.988Z,140.70
2019-02-06T17:37:51.142Z,119.90
2019-02-06T17:41:12.774Z,115.70
2019-02-06T17:44:17.156Z,112.30
2019-02-06T17:47:05.196Z,136.63
2019-02-06T17:50:11.891Z,132.07
2019-02-06T17:53:07.544Z,113.40
2019-02-06T17:55:40.131Z,123.97
2019-02-06T17:58:14.398Z,123.00
2019-02-06T18:00:54.906Z,120.67
2019-02-06T18:03:31.721Z,106.67
2019-02-06T18:06:05.493Z,130.07
2019-02-06T18:08:39.852Z,135.30
2019-02-06T18:11:13.692Z,140.60
2019-02-06T18:13:47.182Z,134.50
2019-02-06T18:16:21.753Z,152.13
2019-02-06T18:18:55.268Z,165.00
2019-02-06T18:21:29.265Z,156.63
2019-02-06T18:24:03.238Z,166.13
2019-02-06T18:26:40.998Z,158.67
2019-02-06T18:29:14.266Z,169.77
2019-02-06T18:31:48.228Z,163.30
2019-02-06T18:34:19.792Z,140.97
2019-02-06T18:36:51.308Z,141.50
2019-02-06T18:39:24.305Z,157.32
2019-02-06T18:41:58.301Z,127.40
2019-02-06T18:44:32.111Z,128.90
2019-02-06T18:47:03.898Z,139.70
2019-02-06T18:49:37.433Z,140.03
2019-02-06T18:52:20.219Z,149.93
2019-02-06T18:54:46.724Z,150.63
2019-02-06T18:57:19.469Z,141.70
2019-02-06T18:59:54.944Z,148.55
2019-02-06T19:02:26.425Z,128.20
2019-02-06T19:05:04.108Z,120.00
2019-02-06T19:07:37.525Z,143.23
2019-02-06T19:10:13.518Z,127.10
2019-02-06T19:12:48.875Z,127.35
2019-02-06T19:15:19.647Z,138.75
2019-02-06T19:17:53.669Z,134.13
2019-02-06T19:20:27.538Z,141.95
2019-02-06T19:23:01.715Z,136.77
2019-02-06T19:25:33.103Z,166.97
2019-02-06T19:28:06.712Z,156.65
2019-02-06T19:30:42.262Z,133.90
2019-02-06T19:33:17.221Z,141.10
2019-02-06T19:35:51.652Z,146.07
2019-02-06T19:38:25.897Z,148.30
2019-02-06T19:41:00.001Z,130.33
2019-02-06T19:43:33.637Z,149.43
2019-02-06T19:46:09.262Z,130.87
2019-02-06T19:48:40.671Z,138.67
2019-02-06T19:51:13.536Z,138.80
2019-02-06T19:53:46.753Z,142.80
2019-02-06T19:56:20.812Z,116.15
2019-02-06T19:58:52.857Z,134.03
2019-02-06T20:01:25.766Z,137.28
2019-02-06T20:03:58.699Z,122.87
2019-02-06T20:06:32.066Z,129.27
2019-02-06T20:09:09.584Z,136.57
2019-02-06T20:11:42.167Z,124.60
2019-02-06T20:14:15.775Z,136.20
2019-02-06T20:16:47.738Z,108.63
2019-02-06T20:19:21.009Z,134.10
2019-02-06T20:21:52.364Z,125.67
2019-02-06T20:24:24.754Z,132.60
2019-02-06T20:26:56.403Z,132.23
2019-02-06T20:29:29.800Z,134.43
2019-02-06T20:32:05.995Z,140.13
2019-02-06T20:34:37.775Z,149.27
2019-02-06T20:37:12.536Z,155.82
2019-02-06T20:39:48.076Z,128.38
2019-02-06T20:42:19.949Z,136.97
2019-02-06T20:44:53.889Z,142.10
2019-02-06T20:47:28.031Z,146.35
2019-02-06T20:50:03.392Z,142.37
2019-02-06T20:52:34.721Z,126.18
2019-02-06T20:55:08.851Z,134.53
2019-02-06T20:57:41.298Z,142.67
2019-02-06T21:00:18.416Z,121.80
2019-02-06T21:02:51.899Z,126.80
2019-02-06T21:05:25.990Z,139.65
2019-02-06T21:08:02.865Z,130.83
2019-02-06T21:10:34.271Z,132.57
2019-02-06T21:13:08.165Z,151.63
2019-02-06T21:15:42.033Z,139.37
2019-02-06T21:18:15.065Z,137.50
2019-02-06T21:20:46.584Z,142.72
2019-02-06T21:23:20.310Z,139.90
2019-02-06T21:25:54.253Z,144.07
2019-02-06T21:28:27.968Z,133.47
2019-02-06T21:31:02.024Z,144.85
2019-02-06T21:33:34.454Z,140.20
2019-02-06T21:36:06.976Z,148.50
2019-02-06T21:38:40.104Z,152.37
2019-02-06T21:41:14.105Z,138.07
2019-02-06T21:43:49.900Z,154.07
2019-02-06T21:46:22.451Z,165.25
2019-02-06T21:48:56.238Z,166.33
2019-02-06T21:51:27.637Z,177.15
2019-02-06T21:54:01.068Z,176.03
2019-02-06T21:56:34.320Z,161.67
2019-02-06T21:59:06.439Z,145.30
2019-02-06T22:01:38.234Z,163.45
2019-02-06T22:04:10.321Z,170.80
2019-02-06T22:06:47.745Z,161.43
2019-02-06T22:09:22.965Z,177.57
2019-02-06T22:11:55.251Z,139.60
2019-02-06T22:14:29.651Z,232.73
2019-02-06T22:17:03.275Z,209.47
2019-02-06T22:19:34.821Z,187.17
2019-02-06T22:22:08.100Z,210.03
2019-02-06T22:24:42.262Z,192.43
2019-02-06T22:27:15.322Z,167.18
2019-02-06T22:29:47.368Z,144.05
2019-02-06T22:32:22.993Z,175.17
2019-02-06T22:34:58.934Z,143.30
2019-02-06T22:37:31.479Z,141.13
2019-02-06T22:40:08.432Z,149.17
2019-02-06T22:42:40.230Z,138.43
2019-02-06T22:45:18.929Z,148.62
2019-02-06T22:47:50.776Z,135.22
2019-02-06T22:50:26.337Z,137.90
2019-02-06T22:53:00.458Z,116.93
2019-02-06T22:55:34.536Z,132.70
2019-02-06T22:58:05.814Z,125.65
2019-02-06T23:00:56.767Z,118.30
2019-02-06T23:03:34.623Z,118.67
2019-02-06T23:06:10.021Z,134.47
2019-02-06T23:08:42.463Z,115.33
2019-02-06T23:11:17.396Z,103.90
2019-02-06T23:13:50.565Z,109.95
2019-02-06T23:16:24.461Z,125.63
2019-02-06T23:19:00.170Z,111.83
2019-02-06T23:21:32.599Z,104.57
2019-02-06T23:24:06.604Z,106.67
2019-02-06T23:26:40.593Z,107.60
2019-02-06T23:29:14.645Z,100.67
2019-02-06T23:31:46.695Z,134.17
2019-02-06T23:34:18.438Z,128.57
2019-02-06T23:36:50.068Z,106.40
2019-02-06T23:39:21.475Z,117.70
2019-02-06T23:41:54.614Z,110.97
2019-02-06T23:44:30.140Z,105.83
2019-02-06T23:47:01.420Z,97.40
2019-02-06T23:49:33.773Z,89.50
2019-02-06T23:52:07.688Z,94.67
2019-02-06T23:54:40.685Z,89.40
2019-02-06T23:57:12.869Z,101.62
2019-02-06T23:59:45.737Z,90.28
